N233HF KISP-KISP
Flight info
| Callsign | N233HF |
|---|---|
| Flight time | 0h 15m |
| Altitude | |
| Route | |
| Aircraft | C172/L-DOV/C |
Departure
| Time | 2026-05-07 17:30 |
|---|---|
| Airport | Long Island MacArthur Airport (KISP) |
Arrival
| Time | 2026-05-07 17:46 |
|---|---|
| Airport | Long Island MacArthur Airport (KISP) |
| Time | Latitude | Longitude | Altitude | Speed | Heading |
|---|---|---|---|---|---|
| 2026-05-07 17:27 | 40.79493 | -73.10720 | 90 ft | 5 kts | 182° |
| 2026-05-07 17:27 | 40.79431 | -73.10720 | 90 ft | 12 kts | 180° |
| 2026-05-07 17:27 | 40.79381 | -73.10720 | 91 ft | 3 kts | 178° |
| 2026-05-07 17:28 | 40.79380 | -73.10720 | 91 ft | 0 kts | 180° |
| 2026-05-07 17:28 | 40.79379 | -73.10720 | 91 ft | 1 kts | 180° |
| 2026-05-07 17:28 | 40.79368 | -73.10720 | 91 ft | 4 kts | 178° |
| 2026-05-07 17:28 | 40.79326 | -73.10715 | 96 ft | 7 kts | 150° |
| 2026-05-07 17:29 | 40.79325 | -73.10648 | 94 ft | 9 kts | 55° |
| 2026-05-07 17:29 | 40.79381 | -73.10571 | 95 ft | 23 kts | 44° |
| 2026-05-07 17:29 | 40.79605 | -73.10257 | 120 ft | 63 kts | 37° |
| 2026-05-07 17:29 | 40.79888 | -73.09780 | 294 ft | 67 kts | 44° |
| 2026-05-07 17:30 | 40.80193 | -73.09291 | 468 ft | 69 kts | 29° |
| 2026-05-07 17:30 | 40.80634 | -73.08894 | 565 ft | 83 kts | 28° |
| 2026-05-07 17:30 | 40.81119 | -73.08456 | 817 ft | 83 kts | 28° |
| 2026-05-07 17:30 | 40.81609 | -73.08082 | 1081 ft | 78 kts | 11° |
| 2026-05-07 17:31 | 40.82131 | -73.08223 | 1264 ft | 85 kts | 323° |
| 2026-05-07 17:31 | 40.82596 | -73.08718 | 1239 ft | 84 kts | 321° |
| 2026-05-07 17:31 | 40.83040 | -73.09220 | 1214 ft | 83 kts | 319° |
| 2026-05-07 17:31 | 40.83454 | -73.09726 | 1281 ft | 80 kts | 315° |
| 2026-05-07 17:32 | 40.83569 | -73.10406 | 1363 ft | 81 kts | 257° |
| 2026-05-07 17:32 | 40.83251 | -73.11025 | 1384 ft | 83 kts | 226° |
| 2026-05-07 17:32 | 40.82781 | -73.11504 | 1404 ft | 87 kts | 222° |
| 2026-05-07 17:32 | 40.82279 | -73.11958 | 1416 ft | 89 kts | 216° |
| 2026-05-07 17:33 | 40.81723 | -73.12330 | 1431 ft | 92 kts | 208° |
| 2026-05-07 17:33 | 40.81114 | -73.12624 | 1389 ft | 95 kts | 205° |
| 2026-05-07 17:33 | 40.80521 | -73.12941 | 1394 ft | 91 kts | 212° |
| 2026-05-07 17:33 | 40.79976 | -73.13381 | 1319 ft | 94 kts | 221° |
| 2026-05-07 17:34 | 40.79447 | -73.13861 | 1363 ft | 91 kts | 225° |
| 2026-05-07 17:34 | 40.79014 | -73.14445 | 1505 ft | 85 kts | 245° |
| 2026-05-07 17:34 | 40.78700 | -73.15082 | 1575 ft | 83 kts | 231° |
| 2026-05-07 17:34 | 40.78139 | -73.15240 | 1518 ft | 92 kts | 161° |
| 2026-05-07 17:35 | 40.77624 | -73.14729 | 1433 ft | 88 kts | 134° |
| 2026-05-07 17:35 | 40.77410 | -73.14047 | 1304 ft | 78 kts | 84° |
| 2026-05-07 17:35 | 40.77472 | -73.13345 | 1022 ft | 75 kts | 69° |
| 2026-05-07 17:35 | 40.77694 | -73.12761 | 752 ft | 68 kts | 43° |
| 2026-05-07 17:36 | 40.78012 | -73.12342 | 560 ft | 62 kts | 33° |
| 2026-05-07 17:36 | 40.78345 | -73.11918 | 405 ft | 68 kts | 44° |
| 2026-05-07 17:36 | 40.78660 | -73.11506 | 212 ft | 58 kts | 41° |
| 2026-05-07 17:36 | 40.78937 | -73.11149 | 107 ft | 53 kts | 41° |
| 2026-05-07 17:37 | 40.79178 | -73.10840 | 93 ft | 51 kts | 45° |
| 2026-05-07 17:37 | 40.79482 | -73.10421 | 223 ft | 66 kts | 35° |
| 2026-05-07 17:37 | 40.79829 | -73.09999 | 411 ft | 71 kts | 33° |
| 2026-05-07 17:37 | 40.80219 | -73.09584 | 656 ft | 72 kts | 29° |
| 2026-05-07 17:38 | 40.80623 | -73.09201 | 911 ft | 72 kts | 24° |
| 2026-05-07 17:38 | 40.81072 | -73.08903 | 1121 ft | 77 kts | 13° |
| 2026-05-07 17:38 | 40.81543 | -73.08517 | 1348 ft | 78 kts | 33° |
| 2026-05-07 17:38 | 40.81971 | -73.08151 | 1601 ft | 67 kts | 8° |
| 2026-05-07 17:39 | 40.82365 | -73.08383 | 1593 ft | 72 kts | 305° |
| 2026-05-07 17:39 | 40.82633 | -73.08954 | 1550 ft | 73 kts | 303° |
| 2026-05-07 17:39 | 40.82807 | -73.09347 | 1492 ft | 76 kts | 304° |
| 2026-05-07 17:39 | 40.82900 | -73.09548 | 1498 ft | 74 kts | 303° |
| 2026-05-07 17:40 | 40.83484 | -73.11156 | 1495 ft | 76 kts | 293° |
| 2026-05-07 17:40 | 40.83586 | -73.12051 | 1487 ft | 79 kts | 249° |
| 2026-05-07 17:40 | 40.83106 | -73.12490 | 1478 ft | 92 kts | 213° |
| 2026-05-07 17:41 | 40.82703 | -73.12752 | 1407 ft | 98 kts | 212° |
| 2026-05-07 17:41 | 40.81251 | -73.13874 | 1274 ft | 94 kts | 225° |
| 2026-05-07 17:41 | 40.80733 | -73.14393 | 1217 ft | 94 kts | 225° |
| 2026-05-07 17:42 | 40.80312 | -73.14832 | 1141 ft | 96 kts | 223° |
| 2026-05-07 17:42 | 40.79796 | -73.15360 | 1094 ft | 93 kts | 224° |
| 2026-05-07 17:42 | 40.79282 | -73.15872 | 1056 ft | 92 kts | 225° |
| 2026-05-07 17:42 | 40.78767 | -73.16355 | 1055 ft | 90 kts | 220° |
| 2026-05-07 17:43 | 40.78427 | -73.16656 | 1056 ft | 86 kts | 214° |
| 2026-05-07 17:43 | 40.77859 | -73.16684 | 1064 ft | 87 kts | 148° |
| 2026-05-07 17:43 | 40.77286 | -73.15837 | 944 ft | 95 kts | 123° |
| 2026-05-07 17:43 | 40.76946 | -73.15137 | 921 ft | 86 kts | 104° |
| 2026-05-07 17:44 | 40.76900 | -73.14451 | 870 ft | 69 kts | 75° |
| 2026-05-07 17:44 | 40.77000 | -73.13851 | 754 ft | 65 kts | 57° |
| 2026-05-07 17:44 | 40.77250 | -73.13339 | 624 ft | 68 kts | 41° |
| 2026-05-07 17:44 | 40.77577 | -73.12910 | 521 ft | 65 kts | 36° |
| 2026-05-07 17:45 | 40.77891 | -73.12498 | 437 ft | 63 kts | 44° |
| 2026-05-07 17:45 | 40.78202 | -73.12103 | 344 ft | 63 kts | 33° |
| 2026-05-07 17:45 | 40.78513 | -73.11701 | 246 ft | 60 kts | 34° |
| 2026-05-07 17:45 | 40.78788 | -73.11340 | 142 ft | 53 kts | 41° |
| 2026-05-07 17:46 | 40.79033 | -73.11015 | 98 ft | 49 kts | 37° |